Hutchinson County Airport - Borger, Texas, United States - FAA: BGD - ICAO: KBGD - IATA: BGD

 
  Longest Runway: 6,300 feet   Approach Types:    Customs Landing Rights Airport: No   Port of Entry: No

Local Forecast

Tonight (9/16): Partly cloudy, with a low around 65. South southwest wind around 10 mph.

Wednesday (9/17): Mostly sunny, with a high near 87. Southwest wind 5 to 10 mph.

Wednesday Night (9/17): Partly cloudy, with a low around 66. Southwest wind 5 to 10 mph.

Thursday (9/18): Mostly sunny, with a high near 85. South southeast wind 5 to 15 mph.

Thursday Night (9/18): A 20 percent chance of showers and thunderstorms. Mostly cloudy, with a low around 63. South southeast wind 10 to 15 mph.

Friday (9/19): A 50 percent chance of showers and thunderstorms. Some of the storms could produce heavy rain. Mostly cloudy, with a high near 76. South southeast wind 10 to 15 mph, with gusts as high as 20 mph.

Friday Night (9/19): Showers and thunderstorms likely. Some of the storms could produce heavy rain. Mostly cloudy, with a low around 65. Southeast wind around 15 mph, with gusts as high as 20 mph. Chance of precipitation is 60%.



Current Weather (METAR)

2014/09/17 00:51 KBGD 170051Z AUTO 18007KT 10SM CLR 26/17 A3007 RMK AO2 SLP149 T02560167

BORGER HUTCHINSON CO AIRPORT , TX, United States (KBGD) 35-42N 101-24W 927M Sep 16, 2014 - 08:51 PM EDT / 2014.09.17 0051 UTC Wind: from the S (180 degrees) at 8 MPH (7 KT):0 Visibility: 10 mile(s):0 Sky conditions: clear Temperature: 78.1 F (25.6 C) Dew Point: 62.1 F (16.7 C) Relative Humidity: 57% Pressure (altimeter): 30.07 in. Hg (1018 hPa) ob: KBGD 170051Z AUTO 18007KT 10SM CLR 26/17 A3007 RMK AO2 SLP149 T02560167 cycle: 1

Terminal Forecast (TAF)